Time;durP1;ratioP1;P1;durP2;ratioP2;P2;SDS_P1;SDS_P2;PMS_P1;PMS_P2;Temp;Humidity;BMP_temperature;BMP_pressure;BME280_temperature;BME280_humidity;BME280_pressure;Samples;Min_cycle;Max_cycle;Signal;HPM_P1;HPM_P2
2023/03/17 00:01:43;;;;;;;4.77;1.30;;;10.10;99.90;;;;;;5031837;28;20331;-80
2023/03/17 00:04:13;;;;;;;2.85;1.00;;;10.00;99.90;;;;;;5031768;28;20126;-81
2023/03/17 00:06:40;;;;;;;6.78;1.40;;;10.00;99.90;;;;;;5032077;28;20026;-81
2023/03/17 00:09:14;;;;;;;4.43;1.20;;;10.00;99.90;;;;;;5031654;28;20029;-80
2023/03/17 00:11:44;;;;;;;4.35;1.10;;;10.00;99.90;;;;;;5031885;28;20025;-80
2023/03/17 00:14:11;;;;;;;5.75;1.30;;;10.00;99.90;;;;;;5033976;28;20079;-82
2023/03/17 00:16:40;;;;;;;;;;;10.00;99.90;;;;;;5030922;28;20137;-80
2023/03/17 00:19:09;;;;;;;4.65;1.08;;;10.00;99.90;;;;;;5032214;28;19916;-80
2023/03/17 00:21:38;;;;;;;13.23;1.98;;;10.00;99.90;;;;;;5031684;28;20021;-81
2023/03/17 00:24:09;;;;;;;3.35;1.20;;;10.00;99.90;;;;;;5031432;28;20036;-81
2023/03/17 00:26:45;;;;;;;5.65;1.27;;;10.00;99.90;;;;;;5032244;28;20021;-81
2023/03/17 00:29:12;;;;;;;4.55;1.30;;;10.00;99.90;;;;;;5031907;28;20041;-80
2023/03/17 00:31:38;;;;;;;5.35;1.48;;;9.90;99.90;;;;;;5031531;28;20039;-80
2023/03/17 00:34:14;;;;;;;7.75;1.63;;;9.80;99.90;;;;;;4997468;28;20033;-80
2023/03/17 00:36:41;;;;;;;5.18;1.20;;;9.80;99.90;;;;;;5031542;28;20164;-79
2023/03/17 00:39:19;;;;;;;5.38;1.20;;;9.70;99.90;;;;;;5019134;28;20084;-80
2023/03/17 00:41:46;;;;;;;6.35;1.20;;;9.70;99.90;;;;;;5051195;28;20093;-80
2023/03/17 00:44:13;;;;;;;4.40;1.20;;;9.60;99.90;;;;;;5051236;28;20021;-81
2023/03/17 00:46:45;;;;;;;4.80;1.27;;;9.60;99.90;;;;;;5032805;28;20021;-81
2023/03/17 00:49:20;;;;;;;5.53;1.23;;;9.70;99.90;;;;;;5051406;28;20048;-81
2023/03/17 00:51:48;;;;;;;3.08;1.13;;;9.80;99.90;;;;;;5051608;28;20479;-81
2023/03/17 00:54:17;;;;;;;11.88;1.48;;;9.80;99.90;;;;;;5051153;28;20057;-80
2023/03/17 00:56:48;;;;;;;3.00;1.20;;;9.80;99.90;;;;;;5051914;28;20057;-80
2023/03/17 00:59:46;;;;;;;8.48;1.45;;;9.80;99.90;;;;;;5051673;28;20032;-81
2023/03/17 01:02:13;;;;;;;5.30;1.10;;;9.90;99.90;;;;;;5051258;28;20032;-81
2023/03/17 01:04:42;;;;;;;9.02;1.15;;;9.90;99.90;;;;;;5033262;28;20044;-80
2023/03/17 01:07:12;;;;;;;4.63;2.00;;;9.90;99.90;;;;;;5050940;28;20021;-81
2023/03/17 01:09:40;;;;;;;6.35;1.27;;;9.80;99.90;;;;;;5051294;28;20025;-81
2023/03/17 01:12:15;;;;;;;4.53;1.08;;;9.80;99.90;;;;;;5051012;28;20032;-81
2023/03/17 01:14:42;;;;;;;3.75;1.20;;;9.90;99.90;;;;;;5051081;28;20057;-81
2023/03/17 01:17:18;;;;;;;8.55;1.52;;;9.90;99.90;;;;;;5033095;28;20044;-81
2023/03/17 01:19:47;;;;;;;5.67;1.50;;;10.00;99.90;;;;;;5049259;28;20036;-81
2023/03/17 01:22:13;;;;;;;4.10;1.40;;;10.00;99.90;;;;;;5051912;28;20028;-81
2023/03/17 01:24:41;;;;;;;5.32;1.27;;;10.00;99.90;;;;;;5054919;28;20021;-82
2023/03/17 01:27:07;;;;;;;4.28;1.10;;;10.00;99.90;;;;;;5054724;28;20127;-81
2023/03/17 01:29:34;;;;;;;8.48;1.40;;;10.10;99.90;;;;;;5054764;28;20067;-80
2023/03/17 01:32:01;;;;;;;8.77;1.23;;;10.10;99.90;;;;;;5054644;28;20025;-80
2023/03/17 01:34:28;;;;;;;;;;;10.00;99.90;;;;;;5036803;28;20033;-81
2023/03/17 01:36:54;;;;;;;4.70;1.52;;;9.90;99.90;;;;;;5054655;28;19912;-82
2023/03/17 01:39:20;;;;;;;4.53;1.30;;;9.90;99.90;;;;;;5047249;28;20053;-82
2023/03/17 01:41:47;;;;;;;6.10;1.15;;;9.90;99.90;;;;;;5035169;28;20164;-81
2023/03/17 01:44:17;;;;;;;6.97;1.23;;;10.00;99.90;;;;;;5034710;28;20107;-80
2023/03/17 01:46:46;;;;;;;6.40;1.35;;;10.00;99.90;;;;;;5034070;28;20029;-80
2023/03/17 01:49:31;;;;;;;6.38;1.42;;;9.90;99.90;;;;;;5034402;28;20108;-81
2023/03/17 01:52:05;;;;;;;8.53;1.30;;;9.80;99.90;;;;;;5013714;28;20048;-80
2023/03/17 01:54:41;;;;;;;5.20;1.20;;;9.80;99.90;;;;;;5016497;28;20771;-81
2023/03/17 01:57:23;;;;;;;7.57;1.73;;;9.90;99.90;;;;;;5034416;28;20036;-80
2023/03/17 01:59:54;;;;;;;5.85;1.35;;;9.90;99.90;;;;;;5034088;28;20022;-80
2023/03/17 02:02:34;;;;;;;3.90;1.23;;;9.90;99.90;;;;;;5033915;28;20097;-81
2023/03/17 02:05:05;;;;;;;7.57;1.42;;;9.90;99.90;;;;;;5034273;28;20033;-81
2023/03/17 02:07:34;;;;;;;9.77;1.90;;;9.80;99.90;;;;;;5016037;28;20022;-81
2023/03/17 02:10:01;;;;;;;5.47;1.30;;;9.70;99.90;;;;;;5032303;28;20095;-81
2023/03/17 02:12:29;;;;;;;5.10;1.23;;;9.80;99.90;;;;;;5033660;28;20021;-81
2023/03/17 02:14:56;;;;;;;5.53;1.20;;;9.70;99.90;;;;;;5017110;28;20040;-81
2023/03/17 02:17:24;;;;;;;7.25;1.20;;;9.70;99.90;;;;;;5034104;28;20125;-81
2023/03/17 02:19:50;;;;;;;6.05;1.20;;;9.60;99.90;;;;;;5033659;28;20022;-81
2023/03/17 02:22:18;;;;;;;5.78;1.40;;;9.70;99.90;;;;;;5033700;28;20441;-79
2023/03/17 02:24:58;;;;;;;4.65;1.20;;;9.60;99.90;;;;;;5033457;28;20061;-79
2023/03/17 02:27:33;;;;;;;4.22;1.58;;;9.60;99.90;;;;;;5033293;28;20047;-81
2023/03/17 02:30:00;;;;;;;9.00;1.40;;;9.70;99.90;;;;;;5033388;28;20033;-81
2023/03/17 02:32:29;;;;;;;3.75;1.25;;;9.70;99.90;;;;;;5032892;28;20036;-81
2023/03/17 02:34:55;;;;;;;5.60;1.45;;;9.60;99.90;;;;;;5032121;28;20037;-81
2023/03/17 02:37:22;;;;;;;4.05;1.20;;;9.60;99.90;;;;;;5033257;28;20029;-81
2023/03/17 02:39:48;;;;;;;5.07;1.33;;;9.70;99.90;;;;;;5033214;28;20190;-81
2023/03/17 02:42:17;;;;;;;6.90;1.30;;;9.70;99.90;;;;;;5033442;28;20029;-81
2023/03/17 02:44:44;;;;;;;4.32;1.20;;;9.70;99.90;;;;;;5033364;28;20028;-81
2023/03/17 02:47:11;;;;;;;3.80;1.05;;;9.60;99.90;;;;;;5032865;28;20085;-81
2023/03/17 02:49:39;;;;;;;4.30;1.23;;;9.60;99.90;;;;;;5015785;28;20052;-80
2023/03/17 02:52:08;;;;;;;3.45;1.20;;;9.60;99.90;;;;;;5033197;28;20040;-81
2023/03/17 02:54:34;;;;;;;7.10;1.10;;;9.60;99.90;;;;;;5033143;28;20131;-80
2023/03/17 02:57:02;;;;;;;7.10;1.53;;;9.70;99.90;;;;;;5033004;28;20276;-80
2023/03/17 02:59:29;;;;;;;7.72;1.30;;;9.70;99.90;;;;;;5033125;28;20022;-81
2023/03/17 03:01:55;;;;;;;;;;;9.70;99.90;;;;;;5032955;28;20091;-81
2023/03/17 03:04:22;;;;;;;5.93;1.15;;;9.70;99.90;;;;;;5033395;28;20376;-81
2023/03/17 03:07:16;;;;;;;8.63;1.40;;;9.70;99.90;;;;;;5033446;28;20029;-77
2023/03/17 03:09:42;;;;;;;5.88;1.33;;;9.70;99.90;;;;;;5032810;28;20037;-81
2023/03/17 03:12:12;;;;;;;4.83;1.23;;;9.70;99.90;;;;;;5033187;28;20119;-82
2023/03/17 03:14:38;;;;;;;4.90;1.30;;;9.70;99.90;;;;;;5033194;28;20327;-81
2023/03/17 03:17:05;;;;;;;7.73;1.87;;;9.80;99.90;;;;;;5032656;28;20036;-80
2023/03/17 03:19:31;;;;;;;5.15;1.33;;;9.80;99.90;;;;;;5032584;28;20127;-83
2023/03/17 03:21:57;;;;;;;5.45;1.27;;;9.80;99.90;;;;;;5015250;28;20033;-80
2023/03/17 03:24:25;;;;;;;3.60;1.10;;;9.90;99.90;;;;;;5014578;28;20021;-81
2023/03/17 03:26:56;;;;;;;5.15;1.30;;;9.90;99.90;;;;;;5037678;23;20064;-79
2023/03/17 03:29:23;;;;;;;4.97;1.27;;;10.00;99.90;;;;;;5035488;28;20017;-80
2023/03/17 03:31:49;;;;;;;;;;;9.90;99.90;;;;;;5018201;28;20423;-78
2023/03/17 03:34:15;;;;;;;;;;;9.80;99.90;;;;;;5017906;28;20351;-81
2023/03/17 03:36:44;;;;;;;5.10;1.20;;;9.90;99.90;;;;;;5044440;28;19913;-76
2023/03/17 03:39:11;;;;;;;5.15;1.30;;;9.90;99.90;;;;;;5032370;28;20116;-81
2023/03/17 03:41:37;;;;;;;6.43;1.23;;;9.90;99.90;;;;;;5013919;28;20025;-80
2023/03/17 03:44:03;;;;;;;5.43;1.13;;;9.90;99.90;;;;;;5014102;28;20041;-80
2023/03/17 03:46:30;;;;;;;2.72;1.33;;;9.90;99.90;;;;;;5014180;28;20029;-81
2023/03/17 03:48:56;;;;;;;5.65;1.23;;;9.90;99.90;;;;;;5014608;28;20095;-80
2023/03/17 03:51:22;;;;;;;4.80;1.20;;;9.90;99.90;;;;;;5031840;28;20025;-81
2023/03/17 03:53:48;;;;;;;7.10;1.35;;;9.80;99.90;;;;;;5031314;28;20525;-80
2023/03/17 03:56:15;;;;;;;7.32;1.45;;;9.80;99.90;;;;;;5013925;28;20037;-81
2023/03/17 03:58:42;;;;;;;3.90;1.63;;;9.70;99.90;;;;;;5013906;28;20033;-81
2023/03/17 04:01:10;;;;;;;5.95;1.23;;;9.70;99.90;;;;;;5013883;28;20122;-81
2023/03/17 04:03:54;;;;;;;11.40;1.73;;;9.70;99.90;;;;;;5014344;28;20033;-79
2023/03/17 04:06:21;;;;;;;4.60;1.67;;;9.70;99.90;;;;;;5032625;28;20021;-80
2023/03/17 04:08:47;;;;;;;8.95;1.25;;;9.70;99.90;;;;;;5034165;28;20425;-81
2023/03/17 04:11:19;;;;;;;9.60;1.50;;;9.70;99.90;;;;;;5033524;28;20035;-81
2023/03/17 04:13:45;;;;;;;6.38;1.35;;;9.70;99.90;;;;;;5052514;28;20409;-80
2023/03/17 04:16:11;;;;;;;5.57;1.15;;;9.60;99.90;;;;;;5051618;28;21071;-81
2023/03/17 04:18:37;;;;;;;6.10;1.60;;;9.60;99.90;;;;;;5051769;28;20099;-80
2023/03/17 04:21:04;;;;;;;6.22;1.27;;;9.60;99.90;;;;;;5033499;28;20028;-81
2023/03/17 04:23:30;;;;;;;4.35;1.48;;;9.60;99.90;;;;;;5052633;28;20079;-80
2023/03/17 04:25:57;;;;;;;3.67;1.10;;;9.50;99.90;;;;;;5054291;28;20118;-79
2023/03/17 04:28:23;;;;;;;5.10;1.50;;;9.60;99.90;;;;;;5038528;28;20425;-78
2023/03/17 04:30:59;;;;;;;2.90;1.00;;;9.50;99.90;;;;;;5052751;28;20017;-80
2023/03/17 04:33:28;;;;;;;3.63;1.08;;;9.40;99.90;;;;;;5052212;28;20025;-81
2023/03/17 04:35:54;;;;;;;8.52;1.40;;;9.40;99.90;;;;;;5052180;28;20036;-80
2023/03/17 04:38:22;;;;;;;5.63;1.50;;;9.40;99.90;;;;;;5073085;23;20044;-80
2023/03/17 04:40:50;;;;;;;4.47;1.52;;;9.50;99.90;;;;;;5072504;28;20064;-78
2023/03/17 04:43:18;;;;;;;5.00;1.33;;;9.40;99.90;;;;;;5071985;28;20081;-79
2023/03/17 04:45:44;;;;;;;5.25;1.42;;;9.40;99.90;;;;;;5054042;28;20025;-81
2023/03/17 04:48:10;;;;;;;4.07;1.13;;;9.40;99.90;;;;;;5072081;28;20021;-80
2023/03/17 04:50:37;;;;;;;7.45;1.20;;;9.40;99.90;;;;;;5073167;28;20046;-80
2023/03/17 04:53:03;;;;;;;;;;;9.40;99.90;;;;;;5054558;28;20024;-80
2023/03/17 04:55:29;;;;;;;4.40;1.33;;;9.50;99.90;;;;;;5072275;28;19923;-81
2023/03/17 04:57:57;;;;;;;5.70;1.23;;;9.50;99.90;;;;;;5074995;28;20065;-81
2023/03/17 05:00:23;;;;;;;7.95;1.35;;;9.50;99.90;;;;;;5058282;28;20031;-81
2023/03/17 05:02:50;;;;;;;3.85;1.50;;;9.50;99.90;;;;;;5058053;28;20020;-82
2023/03/17 05:05:20;;;;;;;7.68;1.17;;;9.50;99.90;;;;;;5058258;28;20064;-81
2023/03/17 05:07:46;;;;;;;5.07;1.40;;;9.50;99.90;;;;;;5089282;28;20476;-82
2023/03/17 05:10:12;;;;;;;4.85;1.10;;;9.50;99.90;;;;;;5096385;28;20031;-81
2023/03/17 05:15:11;;;;;;;4.70;1.20;;;9.60;99.90;;;;;;5072986;28;20052;-81
2023/03/17 05:17:37;;;;;;;5.93;1.33;;;9.60;99.90;;;;;;5074561;28;20021;-80
2023/03/17 05:20:03;;;;;;;5.30;1.30;;;9.60;99.90;;;;;;5074930;28;20536;-81
2023/03/17 05:22:31;;;;;;;5.30;1.10;;;9.70;99.90;;;;;;5074696;28;20405;-81
2023/03/17 05:25:03;;;;;;;6.40;1.30;;;9.70;99.90;;;;;;5074782;28;20025;-82
2023/03/17 05:27:30;;;;;;;5.75;1.20;;;9.70;99.90;;;;;;5056332;28;20046;-81
2023/03/17 05:30:02;;;;;;;2.85;1.10;;;9.70;99.90;;;;;;5086668;28;20048;-81
2023/03/17 05:32:28;;;;;;;5.82;1.25;;;9.80;99.90;;;;;;5094633;28;20060;-81
2023/03/17 05:34:54;;;;;;;6.10;1.30;;;9.80;99.90;;;;;;5083584;28;20101;-80
2023/03/17 05:37:21;;;;;;;8.07;1.73;;;9.80;99.90;;;;;;5067371;28;20433;-79
2023/03/17 05:39:52;;;;;;;;;;;9.80;99.90;;;;;;5075424;28;20021;-80
2023/03/17 05:42:19;;;;;;;4.15;1.23;;;9.90;99.90;;;;;;5091836;28;19950;-81
2023/03/17 05:44:45;;;;;;;4.45;1.30;;;9.90;99.90;;;;;;5074931;28;20074;-81
2023/03/17 05:47:13;;;;;;;5.15;1.10;;;10.00;99.90;;;;;;5056057;28;20024;-81
2023/03/17 05:49:40;;;;;;;8.98;1.38;;;9.80;99.90;;;;;;5075160;28;20025;-80
2023/03/17 05:52:06;;;;;;;5.97;1.25;;;9.50;99.90;;;;;;5073944;28;20116;-81
2023/03/17 05:54:35;;;;;;;4.93;1.10;;;9.40;99.90;;;;;;5074224;28;20416;-80
2023/03/17 05:57:02;;;;;;;4.82;1.60;;;9.80;99.90;;;;;;5081255;28;20039;-77
2023/03/17 05:59:29;;;;;;;9.10;1.83;;;11.00;99.90;;;;;;5076467;28;20333;-79
2023/03/17 06:01:56;;;;;;;3.72;1.20;;;13.10;99.90;;;;;;5059432;28;20093;-78
2023/03/17 06:04:22;;;;;;;3.90;1.00;;;13.00;99.90;;;;;;5094803;28;20508;-77
2023/03/17 06:06:49;;;;;;;3.30;1.20;;;12.40;99.90;;;;;;5072232;28;20043;-79
2023/03/17 06:09:20;;;;;;;5.50;1.40;;;12.40;99.90;;;;;;5073808;28;20021;-74
2023/03/17 06:11:46;;;;;;;7.05;1.35;;;12.20;99.90;;;;;;5079912;28;20033;-75
2023/03/17 06:14:13;;;;;;;7.03;1.80;;;12.00;99.90;;;;;;4897952;28;5064271;-78
2023/03/17 06:16:40;;;;;;;6.97;1.52;;;11.50;99.90;;;;;;5040374;28;20037;-74
2023/03/17 06:19:09;;;;;;;5.43;1.50;;;11.40;99.90;;;;;;5057037;28;20447;-80
2023/03/17 06:21:41;;;;;;;8.65;1.40;;;11.40;99.90;;;;;;5075640;28;20107;-79
2023/03/17 06:24:08;;;;;;;5.88;1.48;;;11.90;99.90;;;;;;5057389;28;20067;-80
2023/03/17 06:26:37;;;;;;;4.80;1.27;;;12.50;99.90;;;;;;5075192;28;20384;-78
2023/03/17 06:29:08;;;;;;;9.15;1.73;;;13.10;99.90;;;;;;5075073;28;20029;-80
2023/03/17 06:31:35;;;;;;;5.78;1.45;;;14.20;99.90;;;;;;5075314;28;20020;-80
2023/03/17 06:34:03;;;;;;;5.93;1.30;;;14.90;99.90;;;;;;5057069;28;20037;-79
2023/03/17 06:36:31;;;;;;;5.60;1.33;;;15.40;99.90;;;;;;5057489;28;20032;-80
2023/03/17 06:38:59;;;;;;;6.15;1.40;;;15.70;99.90;;;;;;5074906;28;20121;-80
2023/03/17 06:41:26;;;;;;;8.02;1.90;;;16.40;99.90;;;;;;5075286;28;20150;-80
2023/03/17 06:44:04;;;;;;;4.88;1.48;;;17.10;99.90;;;;;;5074919;28;20028;-80
2023/03/17 06:46:31;;;;;;;5.68;1.48;;;17.60;99.90;;;;;;5074225;28;20021;-77
2023/03/17 06:48:57;;;;;;;8.50;1.90;;;18.20;99.90;;;;;;5074225;28;20024;-79
2023/03/17 06:51:23;;;;;;;6.82;1.60;;;17.90;99.90;;;;;;5074234;28;20036;-80
2023/03/17 06:53:50;;;;;;;7.90;1.20;;;18.10;99.90;;;;;;5074206;28;20444;-74
2023/03/17 06:56:16;;;;;;;6.53;1.65;;;19.10;99.90;;;;;;5073082;28;20462;-73
2023/03/17 06:58:44;;;;;;;7.50;1.35;;;18.70;99.90;;;;;;5055317;28;20032;-75
2023/03/17 07:01:10;;;;;;;6.45;1.50;;;17.90;99.90;;;;;;5078398;28;20044;-80
2023/03/17 07:03:42;;;;;;;5.38;1.30;;;19.00;99.90;;;;;;5075013;28;20036;-80
2023/03/17 07:08:46;;;;;;;15.68;1.98;;;20.20;99.90;;;;;;5125951;27;20383;-76
2023/03/17 07:11:18;;;;;;;5.53;1.77;;;20.50;99.90;;;;;;5110480;28;20055;-82
2023/03/17 07:13:45;;;;;;;8.30;1.73;;;20.60;99.90;;;;;;5092490;28;20032;-81
2023/03/17 07:16:18;;;;;;;6.13;1.58;;;20.10;99.90;;;;;;5110340;28;20484;-77
2023/03/17 07:18:49;;;;;;;5.35;1.33;;;19.90;99.90;;;;;;5093310;28;20120;-76
2023/03/17 07:21:18;;;;;;;6.65;1.30;;;20.30;99.90;;;;;;5110775;28;20026;-78
2023/03/17 07:23:50;;;;;;;7.30;1.50;;;20.40;99.90;;;;;;5110167;28;20024;-79
2023/03/17 07:26:19;;;;;;;9.98;1.80;;;20.60;99.90;;;;;;5110592;28;20337;-78
2023/03/17 07:28:45;;;;;;;4.85;1.17;;;20.20;99.90;;;;;;5092000;28;20555;-79
2023/03/17 07:31:13;;;;;;;9.23;1.70;;;17.80;99.90;;;;;;5110578;28;20023;-79
2023/03/17 07:33:40;;;;;;;6.47;1.40;;;17.80;99.90;;;;;;5092140;28;20392;-79
2023/03/17 07:36:09;;;;;;;8.13;1.35;;;19.40;99.90;;;;;;5110148;28;20410;-79
2023/03/17 07:38:37;;;;;;;6.63;1.38;;;19.30;99.90;;;;;;5079984;28;20333;-78
2023/03/17 07:41:08;;;;;;;8.07;1.65;;;18.80;99.90;;;;;;5089039;28;20123;-80
2023/03/17 07:43:36;;;;;;;6.55;1.30;;;19.50;99.90;;;;;;5071300;28;20065;-79
2023/03/17 07:46:06;;;;;;;6.75;1.13;;;19.30;99.90;;;;;;5089376;28;20445;-80
2023/03/17 07:48:33;;;;;;;5.47;1.10;;;17.80;99.90;;;;;;5089895;28;20037;-79
2023/03/17 07:50:59;;;;;;;7.00;1.50;;;17.30;99.90;;;;;;5089018;28;20106;-80
2023/03/17 07:53:29;;;;;;;7.35;1.40;;;17.40;99.90;;;;;;5089192;28;20048;-79
2023/03/17 07:55:55;;;;;;;4.55;1.13;;;17.60;99.90;;;;;;5089304;28;20028;-79
2023/03/17 07:58:21;;;;;;;6.45;1.20;;;17.20;99.90;;;;;;5089161;28;20073;-78
2023/03/17 08:00:48;;;;;;;7.72;1.42;;;17.00;99.90;;;;;;5089136;28;20060;-78
2023/03/17 08:03:14;;;;;;;7.93;1.20;;;16.30;99.90;;;;;;5054063;28;20158;-80
2023/03/17 08:05:43;;;;;;;3.35;1.20;;;16.90;99.90;;;;;;5088691;28;20078;-79
2023/03/17 08:08:09;;;;;;;7.13;1.65;;;16.70;99.90;;;;;;5071751;28;20089;-78
2023/03/17 08:10:36;;;;;;;9.00;1.10;;;16.90;99.90;;;;;;5068518;28;20017;-77
2023/03/17 08:13:03;;;;;;;5.70;1.20;;;16.30;99.90;;;;;;5068664;28;20017;-80
2023/03/17 08:15:30;;;;;;;;;;;15.90;99.90;;;;;;5069393;28;20456;-79
2023/03/17 08:17:56;;;;;;;8.35;1.30;;;16.50;99.90;;;;;;5067011;28;19905;-78
2023/03/17 08:20:22;;;;;;;14.20;1.73;;;17.10;99.90;;;;;;5054988;28;20072;-77
2023/03/17 08:22:52;;;;;;;8.10;1.42;;;17.60;99.90;;;;;;5054920;28;20029;-76
2023/03/17 08:25:18;;;;;;;3.33;1.02;;;17.30;99.90;;;;;;5055300;28;20481;-78
2023/03/17 08:27:45;;;;;;;5.72;1.45;;;18.10;99.90;;;;;;5055277;28;20048;-77
2023/03/17 08:30:13;;;;;;;6.03;1.15;;;17.50;99.90;;;;;;5055133;28;20100;-77
2023/03/17 08:32:40;;;;;;;10.30;1.20;;;17.60;99.90;;;;;;5055198;28;20075;-78
2023/03/17 08:35:10;;;;;;;10.40;2.08;;;17.90;99.90;;;;;;5055624;28;20163;-77
2023/03/17 08:37:36;;;;;;;7.10;1.25;;;18.00;99.90;;;;;;5037050;28;20459;-79
2023/03/17 08:40:05;;;;;;;5.05;1.13;;;18.00;99.90;;;;;;5054282;28;20181;-78
2023/03/17 08:42:37;;;;;;;5.47;1.25;;;17.50;99.90;;;;;;5054863;28;20025;-79
2023/03/17 08:45:08;;;;;;;4.63;1.20;;;16.80;99.90;;;;;;5054958;28;20174;-79
2023/03/17 08:47:36;;;;;;;5.95;1.25;;;17.20;99.90;;;;;;5055224;28;20029;-79
2023/03/17 08:50:04;;;;;;;5.60;1.13;;;17.60;99.90;;;;;;5053339;28;20070;-79
2023/03/17 08:52:31;;;;;;;5.93;1.45;;;16.30;99.90;;;;;;5035729;28;20461;-74
2023/03/17 08:55:02;;;;;;;5.03;1.20;;;16.30;99.90;;;;;;5036364;28;20091;-79
2023/03/17 08:57:29;;;;;;;5.47;1.10;;;16.50;99.90;;;;;;5054496;28;20361;-79
2023/03/17 08:59:55;;;;;;;3.65;1.20;;;16.20;99.90;;;;;;5054121;28;20510;-80
2023/03/17 09:02:21;;;;;;;5.73;1.07;;;16.20;99.90;;;;;;5053632;28;20503;-79
2023/03/17 09:04:48;;;;;;;5.35;1.25;;;15.50;99.90;;;;;;5035633;28;20032;-80
2023/03/17 09:07:14;;;;;;;6.78;1.30;;;14.90;99.90;;;;;;5053727;28;20057;-79
2023/03/17 09:09:41;;;;;;;4.53;0.97;;;14.80;99.90;;;;;;5053481;28;20032;-79
2023/03/17 09:12:12;;;;;;;6.35;1.65;;;15.10;99.90;;;;;;5053201;28;20029;-81
2023/03/17 09:14:39;;;;;;;2.65;1.10;;;15.10;99.90;;;;;;5034949;28;20037;-77
2023/03/17 09:17:08;;;;;;;6.68;1.30;;;15.20;99.90;;;;;;5053715;28;20025;-80
2023/03/17 09:19:35;;;;;;;6.03;1.45;;;15.60;99.90;;;;;;5054002;28;20025;-78
2023/03/17 09:22:02;;;;;;;5.10;1.40;;;15.50;99.90;;;;;;5052714;28;20438;-77
2023/03/17 09:24:28;;;;;;;5.27;1.10;;;16.20;99.90;;;;;;5057107;28;20055;-77
2023/03/17 09:26:58;;;;;;;3.92;1.10;;;15.60;99.90;;;;;;5059738;28;20489;-79
2023/03/17 09:29:25;;;;;;;5.00;1.00;;;15.40;99.90;;;;;;5037162;28;20481;-78
2023/03/17 09:31:55;;;;;;;11.35;1.17;;;15.30;99.90;;;;;;5053933;28;20044;-78
2023/03/17 09:34:28;;;;;;;4.65;1.17;;;15.60;99.90;;;;;;5054232;28;20374;-79
2023/03/17 09:36:58;;;;;;;6.68;1.55;;;14.70;99.90;;;;;;5054099;28;20099;-78
2023/03/17 09:39:26;;;;;;;3.72;1.10;;;14.80;99.90;;;;;;5019559;28;20036;-78
2023/03/17 09:42:15;;;;;;;4.40;1.33;;;14.90;99.90;;;;;;5035769;28;20029;-76
2023/03/17 09:45:02;;;;;;;4.50;1.33;;;14.80;99.90;;;;;;4953355;29;20031;-76
2023/03/17 09:47:40;;;;;;;;;;;15.10;99.90;;;;;;4953714;28;20043;-75
2023/03/17 09:50:37;;;;;;;6.05;1.30;;;15.50;99.90;;;;;;4952709;29;19910;-75
2023/03/17 09:53:15;;;;;;;4.57;1.20;;;15.90;99.90;;;;;;4952911;29;20031;-80
2023/03/17 09:55:42;;;;;;;5.07;1.30;;;15.80;99.90;;;;;;4953617;29;20453;-77
2023/03/17 09:58:13;;;;;;;3.45;1.10;;;14.90;99.90;;;;;;4953227;29;20127;-78
2023/03/17 10:00:39;;;;;;;3.97;1.20;;;14.80;99.90;;;;;;4953004;29;20030;-76
2023/03/17 10:03:10;;;;;;;8.82;1.20;;;15.00;99.90;;;;;;4953008;29;20138;-77
2023/03/17 10:05:42;;;;;;;4.95;1.30;;;15.70;99.90;;;;;;4952583;28;20098;-77
2023/03/17 10:08:25;;;;;;;5.13;1.30;;;16.20;99.90;;;;;;4990677;28;20068;-77
2023/03/17 10:11:31;;;;;;;5.85;1.30;;;16.50;99.90;;;;;;4994177;28;20029;-76
2023/03/17 10:14:30;;;;;;;3.55;1.25;;;16.60;99.90;;;;;;4952264;29;20047;-80
2023/03/17 10:17:17;;;;;;;8.38;1.88;;;16.80;99.90;;;;;;4951898;29;20136;-78
2023/03/17 10:19:52;;;;;;;5.00;1.45;;;17.20;99.90;;;;;;4936235;29;20027;-79
2023/03/17 10:22:38;;;;;;;4.85;1.30;;;17.30;99.90;;;;;;4996462;28;20038;-75
2023/03/17 10:25:41;;;;;;;5.70;1.25;;;17.20;99.90;;;;;;5010743;28;20049;-75
2023/03/17 10:28:54;;;;;;;8.98;1.35;;;17.30;99.90;;;;;;5010782;28;20114;-78
2023/03/17 10:31:31;;;;;;;5.40;1.27;;;17.20;99.90;;;;;;5010344;28;20109;-76
2023/03/17 10:34:13;;;;;;;7.00;1.63;;;17.30;99.90;;;;;;5010002;28;20044;-78
2023/03/17 10:36:43;;;;;;;8.70;1.63;;;17.30;99.90;;;;;;5009883;28;20097;-78
2023/03/17 10:39:15;;;;;;;6.18;1.63;;;17.40;99.90;;;;;;5009857;28;20079;-76
2023/03/17 10:42:14;;;;;;;7.55;1.40;;;17.40;99.90;;;;;;5009963;28;20038;-78
2023/03/17 10:45:01;;;;;;;6.03;1.95;;;17.70;99.90;;;;;;5010474;28;20157;-76
2023/03/17 10:47:49;;;;;;;4.85;1.40;;;17.60;99.90;;;;;;5009879;28;20045;-78
2023/03/17 10:50:25;;;;;;;5.43;1.42;;;17.70;99.90;;;;;;5043737;28;20040;-78
2023/03/17 10:53:09;;;;;;;7.55;1.63;;;17.70;99.90;;;;;;5071683;28;20021;-78
2023/03/17 10:55:49;;;;;;;5.53;1.60;;;17.90;99.90;;;;;;5071867;28;20024;-78
2023/03/17 10:58:21;;;;;;;7.82;1.48;;;17.80;99.90;;;;;;5071554;28;20063;-76
2023/03/17 11:01:01;;;;;;;4.15;1.50;;;17.60;99.90;;;;;;5071780;28;20059;-78
2023/03/17 11:03:32;;;;;;;5.75;1.38;;;17.70;99.90;;;;;;5071655;28;20028;-77
2023/03/17 11:06:14;;;;;;;4.93;1.33;;;17.80;99.90;;;;;;5071769;28;20128;-77
2023/03/17 11:08:55;;;;;;;6.93;1.70;;;17.80;99.90;;;;;;5070975;28;20123;-77
2023/03/17 11:11:32;;;;;;;7.13;1.80;;;17.90;99.90;;;;;;5071968;28;20100;-77
2023/03/17 11:14:12;;;;;;;6.57;1.40;;;17.70;99.90;;;;;;5071559;28;20465;-79
2023/03/17 11:16:53;;;;;;;3.65;1.20;;;17.60;99.90;;;;;;5071301;28;20043;-76
2023/03/17 11:19:30;;;;;;;2.60;1.30;;;17.70;99.90;;;;;;5071497;28;20027;-75
2023/03/17 11:22:10;;;;;;;6.82;1.75;;;18.00;99.90;;;;;;5069981;28;20707;-74
2023/03/17 11:25:08;;;;;;;4.60;1.17;;;18.20;99.90;;;;;;5070785;28;20061;-76
2023/03/17 11:27:58;;;;;;;8.07;1.45;;;18.30;99.90;;;;;;5071167;28;20047;-78
2023/03/17 11:30:34;;;;;;;8.20;1.83;;;18.10;99.90;;;;;;5060973;28;20047;-79
2023/03/17 11:33:10;;;;;;;;;;;18.40;99.90;;;;;;5071546;28;20017;-80
2023/03/17 11:35:58;;;;;;;6.57;1.83;;;18.30;99.90;;;;;;5070834;28;19944;-78
2023/03/17 11:38:27;;;;;;;12.27;3.03;;;18.10;99.90;;;;;;5069698;28;20024;-77
2023/03/17 11:41:16;;;;;;;8.88;2.60;;;18.00;99.90;;;;;;5069157;28;20067;-75
2023/03/17 11:44:06;;;;;;;4.80;1.90;;;18.30;99.90;;;;;;5070658;28;20028;-80
2023/03/17 11:46:56;;;;;;;6.20;1.52;;;18.10;99.90;;;;;;5070824;28;20043;-79
2023/03/17 11:49:39;;;;;;;6.25;2.67;;;18.00;99.90;;;;;;5070955;28;20054;-79
2023/03/17 11:52:31;;;;;;;9.70;1.83;;;18.30;99.90;;;;;;5071176;28;20028;-80
2023/03/17 11:55:28;;;;;;;9.02;2.15;;;18.10;99.90;;;;;;5074169;28;20210;-78
2023/03/17 11:58:01;;;;;;;7.38;1.50;;;18.50;99.90;;;;;;5075641;28;20492;-78
2023/03/17 12:00:44;;;;;;;6.93;1.67;;;18.40;99.90;;;;;;5075311;28;20029;-78
2023/03/17 12:03:24;;;;;;;10.18;1.40;;;18.50;99.90;;;;;;5076998;28;20031;-77
2023/03/17 12:05:57;;;;;;;10.15;1.35;;;18.50;99.90;;;;;;5074980;28;20052;-77
2023/03/17 12:08:44;;;;;;;4.78;1.30;;;18.40;99.90;;;;;;5065748;28;20107;-76
2023/03/17 12:11:34;;;;;;;8.63;1.40;;;18.20;99.90;;;;;;5074823;28;20025;-77
2023/03/17 12:14:12;;;;;;;8.95;1.50;;;18.20;99.90;;;;;;5073741;28;20025;-76
2023/03/17 12:16:51;;;;;;;7.20;1.40;;;18.20;99.90;;;;;;5072772;28;20037;-76
2023/03/17 12:19:56;;;;;;;5.85;1.80;;;18.30;99.90;;;;;;5075800;28;20020;-77
2023/03/17 12:22:50;;;;;;;6.00;1.20;;;18.40;99.90;;;;;;5034219;28;20037;-78
2023/03/17 12:25:39;;;;;;;5.10;1.80;;;18.40;99.90;;;;;;5075492;28;20108;-79
2023/03/17 12:28:26;;;;;;;5.45;1.60;;;18.40;99.90;;;;;;5074907;28;20163;-77
2023/03/17 12:31:08;;;;;;;7.72;1.35;;;18.20;99.90;;;;;;5075315;28;20024;-77
2023/03/17 12:33:53;;;;;;;7.68;1.65;;;18.50;99.90;;;;;;5075639;28;20468;-77
2023/03/17 12:36:22;;;;;;;6.55;1.50;;;18.60;99.90;;;;;;5074145;28;20128;-77
2023/03/17 12:39:08;;;;;;;6.15;1.30;;;18.30;99.90;;;;;;5075358;28;20032;-78
2023/03/17 12:42:12;;;;;;;5.22;1.45;;;18.30;99.90;;;;;;5040931;28;20033;-77
2023/03/17 12:44:56;;;;;;;4.65;1.35;;;18.30;99.90;;;;;;5075611;28;20033;-72
2023/03/17 12:47:56;;;;;;;4.47;1.20;;;18.50;99.90;;;;;;5075422;28;20027;-77
2023/03/17 12:50:46;;;;;;;8.98;1.33;;;18.00;99.90;;;;;;5075415;28;20029;-77
2023/03/17 12:53:32;;;;;;;4.57;1.30;;;17.70;99.90;;;;;;5075211;28;20091;-78
2023/03/17 12:56:17;;;;;;;9.25;1.27;;;18.00;99.90;;;;;;5074594;28;20101;-77
2023/03/17 12:58:47;;;;;;;5.90;1.38;;;18.00;99.90;;;;;;5074940;28;20033;-78
2023/03/17 13:01:37;;;;;;;6.30;1.38;;;18.10;99.90;;;;;;5056294;28;20020;-78
2023/03/17 13:04:37;;;;;;;11.57;1.60;;;17.90;99.90;;;;;;5074614;28;20377;-78
2023/03/17 13:07:13;;;;;;;9.95;1.55;;;17.70;99.90;;;;;;5074324;28;20382;-78
2023/03/17 13:10:10;;;;;;;4.03;1.48;;;17.60;99.90;;;;;;5074520;28;20419;-78
2023/03/17 13:12:43;;;;;;;8.48;1.55;;;17.70;99.90;;;;;;5074806;28;20052;-78
2023/03/17 13:15:35;;;;;;;4.75;1.50;;;17.80;99.90;;;;;;5057166;28;20099;-77
2023/03/17 13:18:09;;;;;;;3.13;1.10;;;17.90;99.90;;;;;;5075214;28;20046;-66
2023/03/17 13:20:40;;;;;;;6.07;1.30;;;17.90;99.90;;;;;;5075105;28;20020;-65
2023/03/17 13:23:18;;;;;;;8.82;1.55;;;18.00;99.90;;;;;;5074742;28;20108;-64
2023/03/17 13:25:52;;;;;;;7.50;1.30;;;17.90;99.90;;;;;;5075063;28;20027;-65